Time;durP1;ratioP1;P1;durP2;ratioP2;P2;SDS_P1;SDS_P2;PMS_P1;PMS_P2;Temp;Humidity;BMP_temperature;BMP_pressure;BME280_temperature;BME280_humidity;BME280_pressure;Samples;Min_cycle;Max_cycle;Signal;HPM_P1;HPM_P2
2024/02/21 00:00:25;;;;;;;16.30;7.35;;;9.90;99.90;;;;;;4884597;29;20044;-80
2024/02/21 00:02:52;;;;;;;15.73;10.50;;;10.00;99.90;;;;;;4861970;29;20051;-79
2024/02/21 00:05:19;;;;;;;12.48;7.50;;;10.00;99.90;;;;;;4898244;29;20044;-80
2024/02/21 00:07:48;;;;;;;13.68;10.25;;;10.00;99.90;;;;;;4895969;29;20049;-80
2024/02/21 00:10:15;;;;;;;9.75;6.22;;;10.00;99.90;;;;;;4890309;29;20162;-80
2024/02/21 00:12:46;;;;;;;19.13;10.45;;;10.00;99.90;;;;;;4870454;29;20105;-79
2024/02/21 00:15:14;;;;;;;15.57;8.13;;;10.00;99.90;;;;;;4886926;29;20056;-79
2024/02/21 00:17:44;;;;;;;10.93;6.47;;;10.00;99.90;;;;;;4898488;29;20053;-79
2024/02/21 00:20:11;;;;;;;15.35;8.88;;;10.10;99.90;;;;;;4880379;29;20052;-80
2024/02/21 00:22:40;;;;;;;10.50;7.93;;;10.10;99.90;;;;;;4907465;29;20040;-80
2024/02/21 00:25:08;;;;;;;19.95;8.38;;;10.10;99.90;;;;;;4886981;29;20627;-80
2024/02/21 00:27:37;;;;;;;13.68;6.65;;;10.10;99.90;;;;;;4905056;29;20045;-80
2024/02/21 00:30:05;;;;;;;15.35;8.48;;;10.10;99.90;;;;;;4915425;29;20530;-80
2024/02/21 00:32:34;;;;;;;14.85;8.88;;;10.10;99.90;;;;;;4893986;29;20040;-80
2024/02/21 00:35:01;;;;;;;12.02;7.38;;;10.10;99.90;;;;;;4904096;29;20044;-79
2024/02/21 00:37:29;;;;;;;10.60;7.43;;;10.10;99.90;;;;;;4911851;29;20068;-80
2024/02/21 00:39:56;;;;;;;12.75;7.68;;;10.10;99.90;;;;;;4899970;29;20073;-80
2024/02/21 00:42:25;;;;;;;8.70;7.38;;;10.10;99.90;;;;;;4903727;29;20060;-80
2024/02/21 00:44:52;;;;;;;16.38;9.32;;;10.10;99.90;;;;;;4884314;29;20047;-80
2024/02/21 00:47:21;;;;;;;12.35;7.55;;;10.10;99.90;;;;;;4898186;29;20045;-80
2024/02/21 00:49:54;;;;;;;9.43;6.15;;;10.10;99.90;;;;;;4872638;29;20465;-80
2024/02/21 00:52:22;;;;;;;9.45;6.53;;;10.10;99.90;;;;;;4886304;29;20512;-80
2024/02/21 00:54:51;;;;;;;7.95;6.18;;;10.00;99.90;;;;;;4899976;29;20143;-81
2024/02/21 00:57:22;;;;;;;13.43;7.03;;;10.00;99.90;;;;;;4892763;29;20052;-80
2024/02/21 00:59:49;;;;;;;13.57;7.80;;;10.00;99.90;;;;;;4905878;29;20119;-80
2024/02/21 01:02:16;;;;;;;14.80;8.18;;;10.00;99.90;;;;;;4894743;29;20047;-80
2024/02/21 01:04:43;;;;;;;6.90;6.03;;;10.00;99.90;;;;;;4893280;29;20036;-80
2024/02/21 01:07:10;;;;;;;13.05;8.50;;;10.00;99.90;;;;;;4888164;29;20052;-81
2024/02/21 01:09:38;;;;;;;14.43;9.77;;;10.00;99.90;;;;;;4891716;29;20036;-80
2024/02/21 01:12:08;;;;;;;15.93;8.75;;;10.00;99.90;;;;;;4874769;29;20125;-80
2024/02/21 01:14:35;;;;;;;17.63;10.02;;;10.00;99.90;;;;;;4885879;29;20049;-80
2024/02/21 01:17:03;;;;;;;11.38;7.93;;;10.00;99.90;;;;;;4871015;29;20103;-80
2024/02/21 01:19:30;;;;;;;8.88;5.15;;;10.00;99.90;;;;;;4903172;29;20051;-80
2024/02/21 01:21:58;;;;;;;10.20;7.72;;;9.90;99.90;;;;;;4873114;29;20059;-79
2024/02/21 01:24:25;;;;;;;9.93;7.50;;;9.80;99.90;;;;;;4869920;29;20052;-79
2024/02/21 01:26:53;;;;;;;13.85;7.63;;;9.80;99.90;;;;;;4884358;29;20080;-80
2024/02/21 01:29:22;;;;;;;9.70;6.32;;;9.70;99.90;;;;;;4886575;29;20771;-80
2024/02/21 01:31:50;;;;;;;12.52;7.05;;;9.70;99.90;;;;;;4873378;29;20123;-80
2024/02/21 01:34:18;;;;;;;13.38;7.45;;;9.70;99.90;;;;;;4900815;29;20081;-80
2024/02/21 01:36:47;;;;;;;14.80;9.60;;;9.70;99.90;;;;;;4882001;29;20097;-79
2024/02/21 01:39:14;;;;;;;14.00;8.77;;;9.70;99.90;;;;;;4890855;29;20473;-80
2024/02/21 01:41:41;;;;;;;14.95;10.15;;;9.80;99.90;;;;;;4879373;29;20036;-80
2024/02/21 01:44:08;;;;;;;10.63;6.13;;;9.80;99.90;;;;;;4902643;29;20096;-80
2024/02/21 01:46:36;;;;;;;10.52;5.93;;;9.70;99.90;;;;;;4890767;29;20045;-80
2024/02/21 01:49:04;;;;;;;13.52;8.75;;;9.80;99.90;;;;;;4892556;29;20075;-80
2024/02/21 01:51:33;;;;;;;15.02;7.07;;;9.80;99.90;;;;;;4875778;29;20067;-80
2024/02/21 01:54:01;;;;;;;17.58;8.82;;;9.80;99.90;;;;;;4908193;29;20057;-80
2024/02/21 01:56:29;;;;;;;16.33;8.68;;;9.80;99.90;;;;;;4904726;29;20057;-79
2024/02/21 01:58:56;;;;;;;16.20;8.43;;;9.80;99.90;;;;;;4883642;29;20473;-80
2024/02/21 02:04:38;;;;;;;12.70;8.40;;;9.80;99.90;;;;;;4927076;23;20127;-78
2024/02/21 02:07:07;;;;;;;13.30;8.18;;;9.60;99.90;;;;;;4949554;28;20102;-79
2024/02/21 02:09:34;;;;;;;14.25;7.55;;;9.50;99.90;;;;;;4943347;28;20044;-79
2024/02/21 02:12:02;;;;;;;18.88;9.88;;;9.40;99.90;;;;;;4937287;29;20110;-78
2024/02/21 02:14:31;;;;;;;13.45;8.13;;;9.30;99.90;;;;;;4927173;29;20486;-78
2024/02/21 02:16:57;;;;;;;13.23;8.75;;;9.20;99.90;;;;;;4902191;29;20079;-79
2024/02/21 02:19:25;;;;;;;11.90;8.90;;;9.20;99.90;;;;;;4911332;29;20130;-78
2024/02/21 02:22:05;;;;;;;17.55;10.30;;;9.10;99.90;;;;;;4939602;29;20127;-78
2024/02/21 02:24:34;;;;;;;17.20;8.40;;;9.10;99.90;;;;;;4931395;29;20062;-78
2024/02/21 02:27:01;;;;;;;12.90;8.75;;;9.00;99.90;;;;;;4918633;29;20506;-79
2024/02/21 02:29:32;;;;;;;10.25;6.13;;;9.00;99.90;;;;;;4901827;29;20138;-78
2024/02/21 02:31:59;;;;;;;11.80;8.48;;;9.00;99.90;;;;;;4909934;29;20040;-78
2024/02/21 02:34:27;;;;;;;8.65;6.82;;;9.00;99.90;;;;;;4914456;29;20051;-79
2024/02/21 02:36:54;;;;;;;10.38;6.28;;;9.00;99.90;;;;;;4931606;29;20134;-78
2024/02/21 02:39:21;;;;;;;11.25;6.63;;;9.00;99.90;;;;;;4930703;29;20072;-78
2024/02/21 02:41:48;;;;;;;12.95;6.63;;;9.00;99.90;;;;;;4907158;29;20498;-78
2024/02/21 02:44:17;;;;;;;7.90;4.93;;;9.00;99.90;;;;;;4924694;29;20261;-78
2024/02/21 02:46:44;;;;;;;11.32;6.80;;;9.00;99.90;;;;;;4905449;29;20048;-78
2024/02/21 02:49:11;;;;;;;13.60;6.43;;;9.00;99.90;;;;;;4902282;29;20118;-78
2024/02/21 02:51:45;;;;;;;10.23;6.65;;;9.00;99.90;;;;;;4929312;29;20132;-78
2024/02/21 02:54:13;;;;;;;11.23;4.75;;;9.00;99.90;;;;;;4907462;29;20110;-77
2024/02/21 02:56:40;;;;;;;9.90;5.28;;;9.00;99.90;;;;;;4919166;29;20058;-78
2024/02/21 02:59:08;;;;;;;8.55;4.38;;;9.00;99.90;;;;;;4915518;29;20093;-77
2024/02/21 03:01:35;;;;;;;5.28;3.95;;;8.90;99.90;;;;;;4911168;29;20070;-77
2024/02/21 03:04:02;;;;;;;7.60;4.90;;;9.00;99.90;;;;;;4927902;29;20043;-77
2024/02/21 03:06:30;;;;;;;9.38;5.45;;;9.00;99.90;;;;;;4923048;29;20055;-77
2024/02/21 03:08:57;;;;;;;4.18;3.78;;;9.00;99.90;;;;;;4911202;29;20043;-78
2024/02/21 03:11:28;;;;;;;3.53;2.42;;;9.00;99.90;;;;;;4930729;29;20055;-78
2024/02/21 03:13:56;;;;;;;6.18;4.05;;;9.00;99.90;;;;;;4927920;29;20055;-78
2024/02/21 03:16:24;;;;;;;6.22;4.47;;;9.00;99.90;;;;;;4939488;28;20100;-78
2024/02/21 03:18:51;;;;;;;11.50;3.97;;;9.10;99.90;;;;;;4914121;29;20052;-78
2024/02/21 03:21:19;;;;;;;6.82;4.65;;;9.00;99.90;;;;;;4937420;28;20051;-79
2024/02/21 03:23:46;;;;;;;10.45;4.38;;;9.10;99.90;;;;;;4915533;29;20043;-79
2024/02/21 03:26:16;;;;;;;10.40;5.03;;;9.10;99.90;;;;;;4909389;29;20051;-78
2024/02/21 03:28:48;;;;;;;7.95;4.03;;;9.10;99.90;;;;;;4922065;29;20055;-78
2024/02/21 03:31:15;;;;;;;4.28;3.72;;;9.10;99.90;;;;;;4904696;29;20051;-78
2024/02/21 03:33:43;;;;;;;5.60;4.65;;;9.10;99.90;;;;;;4905788;29;20047;-78
2024/02/21 03:36:17;;;;;;;7.57;3.88;;;9.10;99.90;;;;;;4939718;29;20070;-79
2024/02/21 03:38:44;;;;;;;14.30;3.47;;;9.10;99.90;;;;;;4901086;29;20052;-79
2024/02/21 03:41:12;;;;;;;8.10;5.20;;;9.10;99.90;;;;;;4931323;29;20044;-78
2024/02/21 03:43:39;;;;;;;9.23;4.93;;;9.10;99.90;;;;;;4928393;29;20043;-78
2024/02/21 03:46:07;;;;;;;7.97;4.93;;;9.10;99.90;;;;;;4919092;29;20060;-78
2024/02/21 03:48:35;;;;;;;10.25;4.90;;;9.10;99.90;;;;;;4917646;29;20040;-78
2024/02/21 03:51:03;;;;;;;7.10;3.20;;;9.10;99.90;;;;;;4913012;29;20051;-78
2024/02/21 03:53:30;;;;;;;7.22;4.07;;;9.20;99.90;;;;;;4944480;28;20048;-78
2024/02/21 03:56:02;;;;;;;6.35;3.70;;;9.20;99.90;;;;;;4924511;29;20048;-78
2024/02/21 03:58:33;;;;;;;4.75;3.03;;;9.20;99.90;;;;;;4921569;29;20079;-79
2024/02/21 04:01:01;;;;;;;11.30;3.88;;;9.10;99.90;;;;;;4923909;29;20546;-78
2024/02/21 04:03:29;;;;;;;6.65;3.75;;;9.10;99.90;;;;;;4937034;29;20068;-78
2024/02/21 04:05:56;;;;;;;9.93;3.17;;;9.10;99.90;;;;;;4937557;29;20039;-78
2024/02/21 04:08:24;;;;;;;10.57;5.03;;;9.20;99.90;;;;;;4934661;29;20079;-79
2024/02/21 04:10:51;;;;;;;4.18;2.70;;;9.20;99.90;;;;;;4921621;29;20121;-77
2024/02/21 04:13:20;;;;;;;6.47;4.10;;;9.20;99.90;;;;;;4907521;29;20052;-76
2024/02/21 04:15:47;;;;;;;7.25;4.03;;;9.10;99.90;;;;;;4924450;29;20055;-78
2024/02/21 04:18:15;;;;;;;8.77;2.90;;;9.10;99.90;;;;;;4923453;29;20107;-78
2024/02/21 04:20:42;;;;;;;8.75;4.18;;;9.10;99.90;;;;;;4924453;29;20046;-78
2024/02/21 04:23:09;;;;;;;4.63;2.92;;;9.10;99.90;;;;;;4934830;29;20051;-78
2024/02/21 04:25:36;;;;;;;10.60;3.95;;;9.10;99.90;;;;;;4905764;29;20071;-77
2024/02/21 04:28:04;;;;;;;9.15;3.35;;;9.10;99.90;;;;;;4909279;29;20059;-79
2024/02/21 04:30:33;;;;;;;5.90;3.30;;;9.10;99.90;;;;;;4907110;29;20054;-78
2024/02/21 04:33:00;;;;;;;7.18;5.03;;;9.10;99.90;;;;;;4908779;29;20051;-78
2024/02/21 04:35:27;;;;;;;4.32;3.92;;;9.10;99.90;;;;;;4918319;29;20051;-78
2024/02/21 04:37:55;;;;;;;7.82;3.60;;;9.10;99.90;;;;;;4933864;29;20055;-78
2024/02/21 04:40:22;;;;;;;5.90;3.00;;;9.10;99.90;;;;;;4917628;29;20509;-78
2024/02/21 04:42:51;;;;;;;6.38;3.47;;;9.10;99.90;;;;;;4918076;29;20040;-78
2024/02/21 04:45:18;;;;;;;7.13;4.70;;;9.10;99.90;;;;;;4910689;29;20043;-78
2024/02/21 04:47:45;;;;;;;6.15;3.83;;;9.10;99.90;;;;;;4919534;29;20095;-78
2024/02/21 04:50:12;;;;;;;5.45;3.30;;;9.10;99.90;;;;;;4911800;29;20098;-78
2024/02/21 04:52:41;;;;;;;8.48;3.95;;;9.10;99.90;;;;;;4908859;29;20514;-79
2024/02/21 04:55:08;;;;;;;12.68;5.97;;;9.10;99.90;;;;;;4886353;29;20419;-77
2024/02/21 04:57:35;;;;;;;8.25;4.05;;;9.10;99.90;;;;;;4934084;29;20044;-79
2024/02/21 05:00:03;;;;;;;6.78;4.05;;;9.00;99.90;;;;;;4916778;29;20107;-79
2024/02/21 05:02:31;;;;;;;9.98;3.80;;;9.10;99.90;;;;;;4901982;29;20499;-78
2024/02/21 05:04:58;;;;;;;8.90;5.75;;;9.10;99.90;;;;;;4915662;29;20058;-79
2024/02/21 05:07:25;;;;;;;9.23;4.90;;;9.10;99.90;;;;;;4919170;29;20051;-78
2024/02/21 05:09:52;;;;;;;6.45;4.47;;;9.10;99.90;;;;;;4931727;29;20618;-78
2024/02/21 05:12:21;;;;;;;8.95;5.35;;;9.10;99.90;;;;;;4916592;29;20050;-79
2024/02/21 05:14:48;;;;;;;10.43;6.63;;;9.10;99.90;;;;;;4886380;29;20062;-78
2024/02/21 05:17:15;;;;;;;12.30;5.78;;;9.10;99.90;;;;;;4929322;29;20056;-78
2024/02/21 05:19:42;;;;;;;10.70;4.63;;;8.90;99.90;;;;;;4928163;29;20048;-78
2024/02/21 05:22:10;;;;;;;10.45;5.43;;;9.10;99.90;;;;;;4890580;29;20056;-78
2024/02/21 05:24:39;;;;;;;8.32;4.78;;;9.10;99.90;;;;;;4934038;29;20122;-78
2024/02/21 05:27:06;;;;;;;9.88;6.85;;;9.20;99.90;;;;;;4926748;29;20083;-78
2024/02/21 05:29:34;;;;;;;7.13;5.85;;;9.10;99.90;;;;;;4923719;29;20488;-78
2024/02/21 05:32:02;;;;;;;6.97;5.15;;;9.10;99.90;;;;;;4916311;29;20043;-79
2024/02/21 05:34:29;;;;;;;9.48;5.88;;;9.10;99.90;;;;;;4911770;29;20494;-78
2024/02/21 05:36:57;;;;;;;9.98;5.15;;;9.10;99.90;;;;;;4937938;29;20062;-79
2024/02/21 05:39:24;;;;;;;16.88;7.50;;;9.20;99.90;;;;;;4933387;28;20043;-78
2024/02/21 05:41:52;;;;;;;11.77;5.72;;;9.10;99.90;;;;;;4917049;29;20039;-77
2024/02/21 05:44:19;;;;;;;9.75;5.53;;;9.10;99.90;;;;;;4919283;29;20123;-77
2024/02/21 05:46:46;;;;;;;12.52;4.82;;;9.10;99.90;;;;;;4922391;29;20494;-78
2024/02/21 05:49:14;;;;;;;15.60;7.53;;;9.10;99.90;;;;;;4918951;29;20087;-77
2024/02/21 05:51:45;;;;;;;10.63;6.50;;;9.10;99.90;;;;;;4938832;28;20046;-78
2024/02/21 05:54:12;;;;;;;11.27;5.45;;;9.10;99.90;;;;;;4906980;29;20450;-78
2024/02/21 05:56:39;;;;;;;9.80;5.15;;;9.20;99.90;;;;;;4920438;29;20058;-78
2024/02/21 05:59:06;;;;;;;21.13;7.22;;;9.20;99.90;;;;;;4900186;29;20056;-78
2024/02/21 06:01:33;;;;;;;9.38;5.15;;;9.20;99.90;;;;;;4927514;29;20130;-79
2024/02/21 06:04:01;;;;;;;8.35;4.47;;;9.20;99.90;;;;;;4921571;29;20091;-78
2024/02/21 06:06:28;;;;;;;12.23;7.72;;;9.20;99.90;;;;;;4917751;29;20051;-77
2024/02/21 06:08:55;;;;;;;16.10;7.60;;;9.20;99.90;;;;;;4908295;29;20059;-78
2024/02/21 06:11:22;;;;;;;15.45;8.65;;;9.10;99.90;;;;;;4921085;29;20517;-78
2024/02/21 06:13:50;;;;;;;12.25;6.47;;;9.10;99.90;;;;;;4929552;29;20572;-78
2024/02/21 06:16:17;;;;;;;10.68;6.15;;;9.10;99.90;;;;;;4915888;29;20052;-78
2024/02/21 06:18:44;;;;;;;10.52;6.75;;;9.20;99.90;;;;;;4925147;29;20125;-78
2024/02/21 06:21:12;;;;;;;11.30;6.07;;;9.20;99.90;;;;;;4907192;29;20055;-78
2024/02/21 06:23:39;;;;;;;18.90;8.25;;;9.20;99.90;;;;;;4916257;29;20043;-78
2024/02/21 06:26:06;;;;;;;16.10;7.30;;;9.20;99.90;;;;;;4922204;29;20047;-77
2024/02/21 06:28:33;;;;;;;19.85;6.82;;;9.10;99.90;;;;;;4920438;29;20044;-78
2024/02/21 06:31:01;;;;;;;23.70;7.72;;;9.10;99.90;;;;;;4929522;29;20051;-78
2024/02/21 06:33:28;;;;;;;8.00;5.53;;;9.20;99.90;;;;;;4917082;29;20055;-77
2024/02/21 06:35:55;;;;;;;15.68;7.78;;;9.20;99.90;;;;;;4942979;28;20126;-78
2024/02/21 06:38:22;;;;;;;8.73;5.28;;;9.20;99.90;;;;;;4897585;29;20052;-78
2024/02/21 06:40:51;;;;;;;11.43;6.82;;;9.20;99.90;;;;;;4931443;29;20813;-78
2024/02/21 06:43:21;;;;;;;18.77;8.48;;;9.10;99.90;;;;;;4914738;29;20558;-79
2024/02/21 06:45:50;;;;;;;12.00;6.50;;;9.10;99.90;;;;;;4942051;28;20086;-77
2024/02/21 06:48:19;;;;;;;18.48;10.55;;;9.10;99.90;;;;;;4896688;29;20043;-78
2024/02/21 06:50:46;;;;;;;20.20;8.13;;;9.10;99.90;;;;;;4902980;29;20040;-78
2024/02/21 06:53:14;;;;;;;12.32;6.63;;;9.10;99.90;;;;;;4915709;29;20561;-78
2024/02/21 06:55:41;;;;;;;15.65;6.13;;;9.10;99.90;;;;;;4918407;29;20471;-78
2024/02/21 06:58:11;;;;;;;16.35;6.95;;;9.10;99.90;;;;;;4916090;29;20047;-78
2024/02/21 07:00:42;;;;;;;14.90;9.15;;;9.10;99.90;;;;;;4909424;29;20068;-78
2024/02/21 07:03:10;;;;;;;14.50;7.28;;;9.10;99.90;;;;;;4914788;29;20044;-78
2024/02/21 07:05:38;;;;;;;12.60;6.05;;;9.10;99.90;;;;;;4932674;29;20050;-77
2024/02/21 07:08:05;;;;;;;13.43;7.85;;;9.10;99.90;;;;;;4914514;29;20043;-78
2024/02/21 07:10:34;;;;;;;10.02;6.25;;;9.10;99.90;;;;;;4914620;29;20048;-78
2024/02/21 07:13:02;;;;;;;20.52;6.95;;;9.10;99.90;;;;;;4924960;29;20067;-78
2024/02/21 07:15:30;;;;;;;7.80;4.60;;;9.10;99.90;;;;;;4915032;29;20035;-79
2024/02/21 07:17:57;;;;;;;15.68;7.45;;;9.20;99.90;;;;;;4899442;29;20058;-80
2024/02/21 07:20:24;;;;;;;11.88;4.35;;;9.20;99.90;;;;;;4912697;29;20047;-77
2024/02/21 07:22:52;;;;;;;11.65;7.18;;;9.20;99.90;;;;;;4905660;29;20047;-78
2024/02/21 07:25:26;;;;;;;15.98;7.25;;;9.20;99.90;;;;;;4912423;29;20040;-76
2024/02/21 07:27:53;;;;;;;11.15;6.32;;;9.10;99.90;;;;;;4917035;29;20099;-77
2024/02/21 07:30:20;;;;;;;16.05;8.32;;;9.20;99.90;;;;;;4911908;29;20044;-78
2024/02/21 07:32:51;;;;;;;20.20;9.98;;;9.20;99.90;;;;;;4934002;29;20044;-78
2024/02/21 07:35:19;;;;;;;11.48;6.25;;;9.20;99.90;;;;;;4947806;29;20079;-80
2024/02/21 07:37:46;;;;;;;9.98;7.28;;;9.10;99.90;;;;;;4957648;29;20063;-81
2024/02/21 07:40:18;;;;;;;12.27;8.43;;;9.20;99.90;;;;;;4925806;29;20133;-80
2024/02/21 07:42:46;;;;;;;13.80;7.65;;;9.10;99.90;;;;;;4927095;29;20041;-81
2024/02/21 07:45:15;;;;;;;8.30;6.15;;;9.10;99.90;;;;;;4929936;29;20099;-81
2024/02/21 07:47:43;;;;;;;16.67;9.73;;;9.10;99.90;;;;;;4923535;29;20044;-80
2024/02/21 07:50:10;;;;;;;14.32;8.45;;;9.20;99.90;;;;;;4895712;29;20045;-81
2024/02/21 07:52:40;;;;;;;11.88;7.18;;;9.10;99.90;;;;;;4885944;29;20040;-81
2024/02/21 07:55:10;;;;;;;15.85;7.53;;;9.10;99.90;;;;;;4922286;29;20131;-82
2024/02/21 07:57:38;;;;;;;17.17;11.68;;;9.10;99.90;;;;;;4922554;29;20094;-80
2024/02/21 08:00:09;;;;;;;15.88;10.10;;;9.10;99.90;;;;;;4928532;29;20044;-80
2024/02/21 08:02:39;;;;;;;15.75;10.77;;;9.10;99.90;;;;;;4896989;29;20116;-81
2024/02/21 08:05:07;;;;;;;14.73;8.00;;;9.10;99.90;;;;;;4905163;29;20048;-81
2024/02/21 08:07:35;;;;;;;17.80;11.52;;;9.10;99.90;;;;;;4914089;29;20052;-80
2024/02/21 08:10:03;;;;;;;17.27;10.80;;;9.10;99.90;;;;;;4913066;29;20051;-81
2024/02/21 08:12:30;;;;;;;16.02;10.05;;;9.10;99.90;;;;;;4898040;29;20045;-80
2024/02/21 08:14:57;;;;;;;17.55;10.77;;;9.10;99.90;;;;;;4886736;29;20060;-80
2024/02/21 08:17:24;;;;;;;15.30;10.80;;;9.00;99.90;;;;;;4915617;29;20051;-80
2024/02/21 08:19:51;;;;;;;13.80;8.98;;;9.10;99.90;;;;;;4928530;29;20052;-80
2024/02/21 08:22:18;;;;;;;13.85;6.82;;;9.00;99.90;;;;;;4917256;29;20037;-80
2024/02/21 08:24:46;;;;;;;17.58;8.88;;;9.10;99.90;;;;;;4936497;29;20036;-80
2024/02/21 08:27:13;;;;;;;13.95;8.50;;;9.10;99.90;;;;;;4916805;29;20044;-80
2024/02/21 08:29:41;;;;;;;12.32;8.70;;;9.10;99.90;;;;;;4921367;29;20043;-80
2024/02/21 08:32:09;;;;;;;12.45;7.88;;;9.00;99.90;;;;;;4875168;29;20075;-80
2024/02/21 08:34:36;;;;;;;20.90;12.63;;;9.00;99.90;;;;;;4917764;29;20568;-80
2024/02/21 08:37:06;;;;;;;16.45;9.50;;;9.00;99.90;;;;;;4901806;29;20063;-82
2024/02/21 08:39:34;;;;;;;16.73;11.18;;;9.00;99.90;;;;;;4893465;29;20055;-80
2024/02/21 08:42:01;;;;;;;15.43;9.38;;;9.00;99.90;;;;;;4916867;29;20044;-81
2024/02/21 08:44:28;;;;;;;15.73;8.48;;;9.00;99.90;;;;;;4909137;29;20487;-81
2024/02/21 08:46:56;;;;;;;20.33;11.43;;;9.00;99.90;;;;;;4888653;29;20548;-80
2024/02/21 08:49:27;;;;;;;22.83;13.60;;;8.90;99.90;;;;;;4881979;29;20051;-80
2024/02/21 08:51:59;;;;;;;21.73;14.32;;;9.00;99.90;;;;;;4902817;29;20051;-81
2024/02/21 08:54:26;;;;;;;24.50;16.95;;;9.00;99.90;;;;;;4914769;29;20054;-80
2024/02/21 08:56:55;;;;;;;17.98;14.98;;;9.00;99.90;;;;;;4896562;29;20135;-80
2024/02/21 08:59:22;;;;;;;21.92;15.43;;;8.90;99.90;;;;;;4897073;29;20051;-80
2024/02/21 09:01:51;;;;;;;24.85;15.68;;;8.90;99.90;;;;;;4901023;29;20078;-81
2024/02/21 09:04:19;;;;;;;16.27;11.23;;;8.90;99.90;;;;;;4895340;29;20122;-80
2024/02/21 09:06:46;;;;;;;18.13;11.48;;;8.90;99.90;;;;;;4882960;29;20052;-80
2024/02/21 09:09:15;;;;;;;21.35;13.02;;;8.90;99.90;;;;;;4898002;29;20415;-81
2024/02/21 09:11:43;;;;;;;23.83;16.42;;;8.90;99.90;;;;;;4869089;29;20048;-80
2024/02/21 09:14:10;;;;;;;15.50;11.95;;;8.90;99.90;;;;;;4926648;29;20055;-81
2024/02/21 09:16:37;;;;;;;27.95;20.98;;;8.90;99.90;;;;;;4909919;29;20054;-81
2024/02/21 09:19:05;;;;;;;15.18;10.15;;;8.90;99.90;;;;;;4912523;29;20052;-81
2024/02/21 09:21:32;;;;;;;22.73;16.65;;;8.90;99.90;;;;;;4889886;29;20058;-81
2024/02/21 09:24:00;;;;;;;13.88;9.43;;;8.90;99.90;;;;;;4897514;29;20100;-81
2024/02/21 09:26:27;;;;;;;26.83;15.27;;;9.00;99.90;;;;;;4891349;29;20050;-80
2024/02/21 09:28:55;;;;;;;28.30;19.08;;;9.00;99.90;;;;;;4885693;29;20530;-79
2024/02/21 09:31:22;;;;;;;16.15;12.77;;;9.00;99.90;;;;;;4902209;29;20511;-80
2024/02/21 09:33:49;;;;;;;21.23;16.95;;;9.10;99.90;;;;;;4905250;29;20119;-80
2024/02/21 09:36:19;;;;;;;22.98;20.02;;;9.10;99.90;;;;;;4907879;29;20066;-80
2024/02/21 09:38:46;;;;;;;20.73;10.80;;;9.10;99.90;;;;;;4896503;29;20044;-80
2024/02/21 09:41:22;;;;;;;21.55;15.77;;;9.10;99.90;;;;;;4881293;29;20056;-80
2024/02/21 09:43:53;;;;;;;23.23;18.85;;;9.20;99.90;;;;;;4903963;29;20048;-80
2024/02/21 09:46:48;;;;;;;22.45;12.93;;;9.20;99.90;;;;;;4879814;29;20139;-80
2024/02/21 09:49:33;;;;;;;22.27;14.70;;;9.20;99.90;;;;;;4916021;29;20179;-81
2024/02/21 09:52:03;;;;;;;23.10;14.98;;;9.20;99.90;;;;;;4906719;29;20071;-80
2024/02/21 09:54:33;;;;;;;22.27;14.10;;;9.20;99.90;;;;;;4900551;29;20048;-80
2024/02/21 09:57:01;;;;;;;19.38;17.20;;;9.30;99.90;;;;;;4898666;29;20039;-80
2024/02/21 09:59:32;;;;;;;27.85;20.75;;;9.20;99.90;;;;;;4903278;29;20052;-79
2024/02/21 10:02:01;;;;;;;22.45;17.25;;;9.20;99.90;;;;;;4904094;29;20480;-80
2024/02/21 10:04:29;;;;;;;24.67;18.67;;;9.20;99.90;;;;;;4899368;29;20575;-80
2024/02/21 10:06:57;;;;;;;22.88;17.10;;;9.30;99.90;;;;;;4896337;29;20040;-80
2024/02/21 10:09:29;;;;;;;18.65;15.32;;;9.30;99.90;;;;;;4907102;29;20150;-80
2024/02/21 10:12:19;;;;;;;20.95;15.05;;;9.30;99.90;;;;;;4885062;29;20071;-81
2024/02/21 10:14:46;;;;;;;22.75;14.48;;;9.40;99.90;;;;;;4888795;29;20051;-80
2024/02/21 10:17:19;;;;;;;17.23;15.38;;;9.50;99.90;;;;;;4867570;29;20060;-80
2024/02/21 10:19:47;;;;;;;21.52;17.42;;;9.50;99.90;;;;;;4905679;29;20456;-81
2024/02/21 10:22:17;;;;;;;19.90;14.90;;;9.50;99.90;;;;;;4924240;29;20139;-81
2024/02/21 10:24:45;;;;;;;18.17;9.90;;;9.50;99.90;;;;;;4880707;29;20043;-82
2024/02/21 10:27:12;;;;;;;21.23;15.93;;;9.60;99.90;;;;;;4915516;29;20987;-81
2024/02/21 10:29:41;;;;;;;23.00;20.40;;;9.60;99.90;;;;;;4880944;29;20399;-81
2024/02/21 10:32:13;;;;;;;21.83;12.82;;;9.60;99.90;;;;;;4896060;29;20072;-81
2024/02/21 10:34:42;;;;;;;19.98;15.73;;;9.60;99.90;;;;;;4916430;29;20422;-81
2024/02/21 10:37:11;;;;;;;20.40;13.93;;;9.60;99.90;;;;;;4899577;29;20067;-81
2024/02/21 10:39:41;;;;;;;20.15;14.02;;;9.50;99.90;;;;;;4866531;29;20157;-80
2024/02/21 10:42:11;;;;;;;21.90;13.57;;;9.50;99.90;;;;;;4914762;29;20080;-81
2024/02/21 10:44:41;;;;;;;14.70;11.02;;;9.50;99.90;;;;;;4895543;29;20031;-81
2024/02/21 10:47:10;;;;;;;15.70;10.15;;;9.50;99.90;;;;;;4915340;29;20050;-81
2024/02/21 10:49:39;;;;;;;19.10;13.20;;;9.50;99.90;;;;;;4864064;29;20051;-81
2024/02/21 10:52:22;;;;;;;20.60;12.98;;;9.60;99.90;;;;;;4880511;29;20131;-81
2024/02/21 10:54:59;;;;;;;14.38;8.45;;;9.60;99.90;;;;;;4892603;29;20080;-80
2024/02/21 10:57:29;;;;;;;17.17;12.55;;;9.70;99.90;;;;;;4918596;29;20517;-80
2024/02/21 10:59:59;;;;;;;17.98;13.07;;;9.80;99.90;;;;;;4895934;29;20056;-80
2024/02/21 11:02:29;;;;;;;19.65;11.20;;;9.80;99.90;;;;;;4897346;29;20396;-80
2024/02/21 11:04:58;;;;;;;19.08;10.65;;;9.70;99.90;;;;;;4902340;29;20051;-81
2024/02/21 11:07:26;;;;;;;17.13;12.65;;;9.70;99.90;;;;;;4928513;29;20372;-85
2024/02/21 11:09:55;;;;;;;17.25;12.30;;;9.70;99.90;;;;;;4900734;29;20059;-84
2024/02/21 11:12:24;;;;;;;13.80;10.30;;;9.70;99.90;;;;;;4909400;29;20048;-86
2024/02/21 11:14:51;;;;;;;16.10;8.80;;;9.80;99.90;;;;;;4889901;29;20051;-85
2024/02/21 11:17:26;;;;;;;11.88;7.78;;;9.80;99.90;;;;;;4917758;29;20066;-85
2024/02/21 11:19:54;;;;;;;19.60;15.80;;;9.90;99.90;;;;;;4916753;29;20056;-85
2024/02/21 11:22:24;;;;;;;18.42;11.60;;;10.00;99.90;;;;;;4907563;29;20486;-86
2024/02/21 11:24:53;;;;;;;13.82;9.60;;;10.00;99.90;;;;;;4873527;29;20143;-86
2024/02/21 11:27:25;;;;;;;14.75;10.88;;;9.90;99.90;;;;;;4870455;29;20517;-86
2024/02/21 11:29:57;;;;;;;17.65;12.02;;;9.90;99.90;;;;;;4903077;29;20043;-86
2024/02/21 11:32:26;;;;;;;11.80;9.05;;;9.90;99.90;;;;;;4886391;29;20387;-86
2024/02/21 11:35:02;;;;;;;10.30;9.05;;;9.90;99.90;;;;;;4899298;29;20467;-87
2024/02/21 11:37:36;;;;;;;14.82;10.80;;;9.90;99.90;;;;;;4902720;29;20119;-86
2024/02/21 11:40:07;;;;;;;15.20;10.40;;;9.90;99.90;;;;;;4884785;29;20529;-87
2024/02/21 11:42:36;;;;;;;17.75;12.43;;;9.80;99.90;;;;;;4907165;29;20495;-86
2024/02/21 11:45:04;;;;;;;11.27;7.90;;;9.90;99.90;;;;;;4884132;29;20067;-85
2024/02/21 11:47:31;;;;;;;13.45;7.88;;;9.90;99.90;;;;;;4868611;29;20556;-85
2024/02/21 11:49:58;;;;;;;14.15;7.63;;;9.90;99.90;;;;;;4890700;29;20059;-85
2024/02/21 11:52:27;;;;;;;16.10;11.48;;;9.90;99.90;;;;;;4884421;29;20042;-85
2024/02/21 11:55:04;;;;;;;16.67;14.98;;;9.90;99.90;;;;;;4928405;29;20070;-86
2024/02/21 11:57:31;;;;;;;15.05;12.02;;;9.90;99.90;;;;;;4875775;29;20048;-85
2024/02/21 12:00:12;;;;;;;17.67;13.32;;;9.90;99.90;;;;;;4881236;29;20066;-86
2024/02/21 12:02:42;;;;;;;9.23;6.95;;;9.90;99.90;;;;;;4907430;29;20048;-85
2024/02/21 12:05:09;;;;;;;10.45;7.47;;;9.90;99.90;;;;;;4902667;29;20067;-85
2024/02/21 12:07:40;;;;;;;17.70;9.68;;;9.90;99.90;;;;;;4889850;29;20044;-84
2024/02/21 12:10:13;;;;;;;11.63;10.35;;;9.90;99.90;;;;;;4896244;29;20111;-86
2024/02/21 12:12:40;;;;;;;15.27;11.27;;;9.90;99.90;;;;;;4892581;29;20035;-86
2024/02/21 12:15:08;;;;;;;14.73;10.80;;;9.90;99.90;;;;;;4914741;29;20070;-86
2024/02/21 12:17:36;;;;;;;11.63;8.13;;;9.90;99.90;;;;;;4895948;29;20044;-85
2024/02/21 12:20:08;;;;;;;9.77;8.23;;;9.90;99.90;;;;;;4887708;29;20107;-86
2024/02/21 12:22:37;;;;;;;9.25;6.70;;;9.90;99.90;;;;;;4879258;29;20082;-86
2024/02/21 12:25:19;;;;;;;10.70;6.55;;;9.90;99.90;;;;;;4903710;29;20071;-85
2024/02/21 12:27:47;;;;;;;14.40;8.20;;;9.90;99.90;;;;;;4902086;29;20075;-85
2024/02/21 12:30:16;;;;;;;8.30;6.80;;;10.00;99.90;;;;;;4887851;29;20048;-86
2024/02/21 12:32:43;;;;;;;12.32;8.93;;;10.00;99.90;;;;;;4899005;29;20055;-85
2024/02/21 12:35:10;;;;;;;9.93;7.72;;;10.00;99.90;;;;;;4878022;29;20051;-84
2024/02/21 12:37:38;;;;;;;11.45;8.60;;;10.00;99.90;;;;;;4883642;29;20071;-84
2024/02/21 12:40:07;;;;;;;10.95;9.23;;;10.00;99.90;;;;;;4880861;29;20053;-84
2024/02/21 12:42:35;;;;;;;11.80;7.43;;;10.00;99.90;;;;;;4894622;29;20044;-85
2024/02/21 12:45:03;;;;;;;9.40;6.50;;;10.10;99.90;;;;;;4871833;29;20052;-85
2024/02/21 12:47:30;;;;;;;9.80;7.50;;;10.10;99.90;;;;;;4882578;29;20059;-84
2024/02/21 12:49:59;;;;;;;8.65;6.22;;;10.10;99.90;;;;;;4880144;29;20048;-85
2024/02/21 12:52:28;;;;;;;9.07;6.63;;;10.10;99.90;;;;;;4903325;29;20660;-85
2024/02/21 12:54:58;;;;;;;12.75;10.52;;;10.10;99.90;;;;;;4886031;29;20044;-85